createdAt,value
2024-01-10T00:02:16.607Z,1.98
2024-01-10T00:07:18.971Z,1.65
2024-01-10T00:12:21.002Z,2.42
2024-01-10T00:17:23.328Z,2.97
2024-01-10T00:22:25.486Z,1.65
2024-01-10T00:27:27.506Z,1.50
2024-01-10T00:32:29.702Z,1.40
2024-01-10T00:37:31.887Z,1.40
2024-01-10T00:42:34.059Z,1.63
2024-01-10T00:47:36.350Z,1.20
2024-01-10T00:52:38.483Z,1.58
2024-01-10T00:57:40.546Z,1.40
2024-01-10T01:02:42.695Z,1.45
2024-01-10T01:07:44.768Z,1.73
2024-01-10T01:12:46.847Z,2.10
2024-01-10T01:17:48.965Z,1.60
2024-01-10T01:22:51.124Z,2.25
2024-01-10T01:27:53.258Z,1.95
2024-01-10T01:32:55.358Z,1.50
2024-01-10T01:37:57.561Z,1.40
2024-01-10T01:42:59.731Z,1.33
2024-01-10T01:48:01.938Z,1.65
2024-01-10T01:53:04.532Z,2.63
2024-01-10T01:58:06.698Z,1.48
2024-01-10T02:03:10.594Z,1.02
2024-01-10T02:08:13.031Z,0.85
2024-01-10T02:13:15.500Z,0.50
2024-01-10T02:18:17.671Z,0.80
2024-01-10T02:23:19.908Z,0.70
2024-01-10T02:28:22.152Z,0.70
2024-01-10T02:33:24.414Z,0.80
2024-01-10T02:38:26.625Z,0.77
2024-01-10T02:43:28.638Z,0.98
2024-01-10T02:48:30.950Z,0.90
2024-01-10T02:53:33.021Z,1.35
2024-01-10T02:58:35.039Z,1.58
2024-01-10T03:03:37.145Z,1.25
2024-01-10T03:08:39.386Z,1.60
2024-01-10T03:13:41.782Z,1.92
2024-01-10T03:18:44.049Z,2.25
2024-01-10T03:23:46.168Z,2.03
2024-01-10T03:28:48.245Z,2.58
2024-01-10T03:33:50.483Z,3.05
2024-01-10T03:43:54.501Z,2.72
2024-01-10T03:48:56.527Z,5.20
2024-01-10T03:53:58.688Z,2.90
2024-01-10T03:59:00.856Z,5.57
2024-01-10T04:04:03.147Z,5.15
2024-01-10T04:14:07.216Z,7.75
2024-01-10T04:24:11.159Z,8.30
2024-01-10T04:29:13.330Z,6.85
2024-01-10T04:39:17.326Z,9.05
2024-01-10T04:44:19.579Z,8.85
2024-01-10T04:54:23.273Z,10.23
2024-01-10T04:59:25.554Z,9.23
2024-01-10T05:09:29.429Z,9.18
2024-01-10T05:14:31.494Z,9.70
2024-01-10T05:19:33.551Z,8.77
2024-01-10T05:24:35.753Z,8.98
2024-01-10T05:29:37.861Z,9.90
2024-01-10T05:34:39.937Z,9.23
2024-01-10T05:39:42.054Z,10.68
2024-01-10T05:44:44.146Z,9.40
2024-01-10T05:49:46.189Z,9.85
2024-01-10T05:54:48.207Z,10.10
2024-01-10T05:59:50.210Z,10.00
2024-01-10T06:04:52.331Z,9.93
2024-01-10T06:09:54.347Z,10.85
2024-01-10T06:14:56.427Z,9.88
2024-01-10T06:19:58.506Z,9.32
2024-01-10T06:25:00.652Z,9.68
2024-01-10T06:35:07.107Z,7.25
2024-01-10T06:40:09.531Z,9.80
2024-01-10T06:45:11.696Z,8.40
2024-01-10T06:55:15.559Z,9.98
2024-01-10T07:05:19.614Z,11.13
2024-01-10T07:10:21.949Z,9.75
2024-01-10T07:15:23.929Z,12.98
2024-01-10T07:20:26.083Z,8.25
2024-01-10T07:30:30.055Z,8.60
2024-01-10T07:40:34.985Z,9.45
2024-01-10T07:45:37.053Z,8.90
2024-01-10T07:50:39.058Z,8.95
2024-01-10T07:55:41.153Z,10.48
2024-01-10T08:00:43.208Z,10.15
2024-01-10T08:05:45.380Z,6.53
2024-01-10T08:15:49.236Z,10.77
2024-01-10T08:20:51.238Z,9.52
2024-01-10T08:25:53.242Z,9.85
2024-01-10T08:31:02.963Z,10.02
2024-01-10T08:36:07.375Z,8.73
2024-01-10T08:41:09.842Z,8.70
2024-01-10T08:46:11.900Z,9.07
2024-01-10T08:51:15.214Z,8.93
2024-01-10T08:56:17.222Z,8.52
2024-01-10T09:01:19.388Z,8.38
2024-01-10T09:06:21.490Z,9.82
2024-01-10T09:11:23.531Z,9.45
2024-01-10T09:16:25.758Z,9.68
2024-01-10T09:21:27.936Z,13.13
2024-01-10T09:26:30.001Z,10.43
2024-01-10T09:31:33.478Z,11.35
2024-01-10T09:36:35.542Z,9.13
2024-01-10T09:41:39.144Z,11.27
2024-01-10T09:46:42.395Z,9.68
2024-01-10T09:51:44.409Z,12.75
2024-01-10T09:56:46.491Z,11.20
2024-01-10T10:01:48.476Z,9.75
2024-01-10T10:07:00.001Z,8.80
2024-01-10T10:12:02.176Z,8.82
2024-01-10T10:17:17.482Z,8.40
2024-01-10T10:22:19.751Z,8.45
2024-01-10T10:27:21.825Z,9.25
2024-01-10T10:32:23.875Z,10.93
2024-01-10T10:37:25.903Z,10.85
2024-01-10T10:42:28.011Z,11.32
2024-01-10T10:47:32.422Z,11.18
2024-01-10T10:52:34.565Z,11.57
2024-01-10T10:57:36.635Z,9.02
2024-01-10T11:02:38.752Z,10.65
2024-01-10T11:07:42.208Z,8.23
2024-01-10T11:13:08.606Z,8.10
2024-01-10T11:18:22.454Z,8.50
2024-01-10T11:23:39.261Z,9.10
2024-01-10T11:28:41.683Z,10.10
2024-01-10T11:33:43.905Z,9.35
2024-01-10T11:43:48.007Z,9.82
2024-01-10T11:53:51.975Z,11.10
2024-01-10T12:04:10.824Z,8.80
2024-01-10T12:09:16.929Z,9.05
2024-01-10T12:14:18.946Z,9.73
2024-01-10T12:19:21.062Z,11.10
2024-01-10T12:29:25.008Z,9.32
2024-01-10T12:34:27.166Z,9.32
2024-01-10T12:44:34.033Z,9.55
2024-01-10T12:49:36.051Z,8.80
2024-01-10T12:54:37.987Z,9.88
2024-01-10T12:59:39.990Z,11.18
2024-01-10T13:04:42.100Z,10.63
2024-01-10T13:09:44.167Z,10.93
2024-01-10T13:14:46.281Z,8.02
2024-01-10T13:19:51.300Z,9.35
2024-01-10T13:24:53.556Z,8.20
2024-01-10T13:34:57.456Z,9.50
2024-01-10T13:45:01.304Z,10.10
2024-01-10T13:50:03.976Z,8.77
2024-01-10T13:55:06.546Z,19.42
2024-01-10T14:00:08.913Z,10.52
2024-01-10T14:05:11.147Z,11.73
2024-01-10T14:10:13.352Z,8.18
2024-01-10T14:15:15.284Z,8.73
2024-01-10T14:20:17.419Z,8.68
2024-01-10T14:30:21.397Z,10.80
2024-01-10T14:40:25.572Z,8.48
2024-01-10T14:50:29.470Z,9.48
2024-01-10T15:00:34.324Z,9.73
2024-01-10T15:05:36.608Z,9.57
2024-01-10T15:10:38.937Z,9.55
2024-01-10T15:15:41.325Z,10.07
2024-01-10T15:20:43.570Z,8.00
2024-01-10T15:30:48.535Z,13.63
2024-01-10T15:35:51.023Z,9.60
2024-01-10T15:40:53.126Z,8.68
2024-01-10T15:50:57.552Z,10.30
2024-01-10T15:55:59.915Z,9.70
2024-01-10T16:06:04.927Z,9.48
2024-01-10T16:11:07.318Z,10.27
2024-01-10T16:16:09.623Z,10.88
2024-01-10T16:21:11.793Z,8.70
2024-01-10T16:31:15.837Z,9.25
2024-01-10T16:41:20.172Z,8.23
2024-01-10T16:51:24.010Z,9.25
2024-01-10T17:01:28.028Z,11.25
2024-01-10T17:06:30.186Z,8.73
2024-01-10T17:11:32.401Z,8.50
2024-01-10T17:21:38.909Z,8.88
2024-01-10T17:26:41.152Z,8.45
2024-01-10T17:36:45.319Z,9.80
2024-01-10T17:41:47.456Z,9.52
2024-01-10T17:51:51.527Z,13.98
2024-01-10T18:01:55.602Z,10.57
2024-01-10T18:06:57.748Z,10.05
2024-01-10T18:11:59.705Z,8.70
2024-01-10T18:17:02.714Z,9.73
2024-01-10T18:22:04.915Z,8.80
2024-01-10T18:27:07.112Z,9.45
2024-01-10T18:32:09.459Z,10.63
2024-01-10T18:37:11.562Z,10.50
2024-01-10T18:42:13.693Z,10.95
2024-01-10T18:52:18.822Z,7.78
2024-01-10T18:57:20.994Z,10.27
2024-01-10T19:07:25.064Z,8.68
2024-01-10T19:17:29.116Z,8.48
2024-01-10T19:22:31.323Z,7.57
2024-01-10T19:32:35.236Z,8.75
2024-01-10T19:42:39.197Z,7.75
2024-01-10T19:52:43.662Z,8.45
2024-01-10T19:57:45.784Z,7.70
2024-01-10T20:02:47.962Z,8.23
2024-01-10T20:07:50.024Z,11.40
2024-01-10T20:12:52.153Z,8.50
2024-01-10T20:17:54.451Z,9.10
2024-01-10T20:22:57.192Z,7.75
2024-01-10T20:28:00.728Z,9.00
2024-01-10T20:33:03.221Z,7.82
2024-01-10T20:38:05.378Z,7.97
2024-01-10T20:43:08.065Z,9.55
2024-01-10T20:48:10.337Z,7.75
2024-01-10T20:53:12.644Z,9.10
2024-01-10T21:03:17.079Z,6.80
2024-01-10T21:08:19.382Z,6.35
2024-01-10T21:18:23.370Z,5.68
2024-01-10T21:28:27.347Z,8.20
2024-01-10T21:33:29.498Z,7.95
2024-01-10T21:38:31.528Z,8.35
2024-01-10T21:43:33.558Z,7.07
2024-01-10T21:48:35.568Z,6.97
2024-01-10T21:53:38.063Z,8.02
2024-01-10T21:58:40.361Z,5.32
2024-01-10T22:08:45.130Z,4.47
2024-01-10T22:13:47.230Z,6.53
2024-01-10T22:18:49.441Z,5.88
2024-01-10T22:28:53.419Z,5.93
2024-01-10T22:33:55.684Z,6.72
2024-01-10T22:43:59.654Z,6.68
2024-01-10T22:49:01.810Z,7.03
2024-01-10T22:54:03.976Z,7.25
2024-01-10T23:04:08.002Z,8.30
2024-01-10T23:09:10.091Z,7.25
2024-01-10T23:14:12.142Z,8.27
2024-01-10T23:19:14.380Z,8.63
2024-01-10T23:29:18.352Z,7.85
2024-01-10T23:34:20.521Z,6.85
2024-01-10T23:39:22.691Z,5.82
2024-01-10T23:44:24.834Z,9.35
2024-01-10T23:49:27.040Z,6.72
2024-01-10T23:54:29.121Z,7.00
2024-01-10T23:59:31.282Z,7.53
